ENKB/KSU METAR and TAF weather

Enter ICAO airport designator
Station Type Date Time Source
ENKB METAR 2020/05/30 05:20 UTC NOAA

ENKB 300520Z AUTO 06006KT 9999 NCD 13/05 Q1032 RMK WIND 745FT 13011KT


Station Type Date Time Source
ENKB Decoded METAR 2020/05/30 05:20 UTC NOAA

Kristiansund / Kvernberget, Norway (ENKB) 63-07N 007-50E 62M
May 30, 2020 - 01:20 AM EDT / 2020.05.30 0520 UTC
Wind: from the ENE (060 degrees) at 7 MPH (6 KT):0
Visibility: greater than 7 mile(s):0
Temperature: 55 F (13 C)
Dew Point: 41 F (5 C)
Relative Humidity: 58%
Pressure (altimeter): 30.47 in. Hg (1032 hPa)
ob: ENKB 300520Z AUTO 06006KT 9999 NCD 13/05 Q1032 RMK WIND 745FT 13011KT
cycle: 5

Station Type Date Time Source
ENKB TAF 2010/02/05 07:50 UTC NOAA

METAR ENKB 050750Z 15011KT 110V200 9999 SCT055 BKN070 03/M05 Q1007

Example: see airport list